Aérodrome :
LOGIN :

S'inscrire | Disclaimer

   EN    FR    IT 

 










Légende :    VFR   VFR Marginal   IFR   IFR Intensif   IFR Très Intensif
Visi : 
Plafond : 
>= 8 km
>= 3000ft
5 à 8 km
1000 à 3000 ft
1500m à 5 km
500 à 1000 ft
800 à 1500m
200 à 500 ft
< 800m
< 200 ft
Symboles :   Orages  Brouillard  Fortes neiges  Fortes précipitations  Vent > 20 kt
SIGMETs :   Divers  Orages  Givrage  Turbulence  Onde Orograph.  Cendres Volcan.






- Altitude de l'aérodrome : 36 ft
- Code IATA : LTQ


LFAT - Le Touquet

DERNIER METAR :
  • 091930Z AUTO 35003KT 320V020 CAVOK 02/00 Q1007

METARs EXPIRÉS :
  • 090500Z AUTO 16003KT 6000 NSC M04/M05 Q1007
  • 091900Z AUTO 03008KT CAVOK 02/01 Q1007
  • 091830Z AUTO 03011KT 9999 -DZ FEW034 BKN046 OVC068 02/01 Q1007
  • 091800Z AUTO 01008KT 9999 FEW009/// SCT025/// BKN039/// //////TCU 02/01 Q1007 TEMPO 2000 SHRASN BKN010 BKN020CB
  • 091730Z AUTO 01009KT 9999 -RA SCT027/// BKN038/// BKN062/// ///TCU 02/01 Q1007 TEMPO 2000 SHRASN BKN010 BKN020CB
  • 091700Z AUTO 02007KT 9999 FEW047/// BKN062/// ///CB 02/01 Q1007 TEMPO 2000 SHRASN BKN010 BKN020CB

TAF TAF LFAT
Valide du 09 à 15h jusqu'au 10 à 00h UTC


091400Z 0915/0924 VRB03KT 9999 SCT030
TEMPO 0915/0924 2000 SHRASN BKN010 BKN020CB
ATIS : +33 3 21 06 62 84



MET'MAP, la Météo Aéronautique d'un coup d'oeil ! - Copyright ORBIFLY Décembre 2007 - Disclaimer

ORBIFLY MET'MAP TEAM :

Programmation & Développement : Alexandra Zaïnal
Sur une idée originale de : Baudouin d'Aumeries
Soutien technique & logistique : Manuel Goepfert
Assistance : Marc-Olivier Méhu




SOURCES & CREDITS :

   NOAA